sensor_id;sensor_type;location;lat;lon;timestamp;pressure;altitude;pressure_sealevel;temperature;humidity
67099;BME280;54288;53.046;5.668;2024-02-28T01:22:17;102065.50;;;5.29;100.00
67099;BME280;54288;53.046;5.668;2024-02-28T02:14:20;102039.84;;;5.46;100.00
67099;BME280;54288;53.046;5.668;2024-02-28T02:18:16;102031.28;;;5.50;100.00
67099;BME280;54288;53.046;5.668;2024-02-28T04:10:20;102031.66;;;6.75;100.00
67099;BME280;54288;53.046;5.668;2024-02-28T06:53:03;102079.72;;;7.66;100.00
67099;BME280;54288;53.046;5.668;2024-02-28T06:55:40;102084.97;;;7.68;100.00
67099;BME280;54288;53.046;5.668;2024-02-28T07:03:23;102086.72;;;7.72;100.00
67099;BME280;54288;53.046;5.668;2024-02-28T07:05:49;102093.66;;;7.70;100.00
67099;BME280;54288;53.046;5.668;2024-02-28T07:08:15;102093.66;;;7.70;100.00
67099;BME280;54288;53.046;5.668;2024-02-28T07:10:41;102093.75;;;7.76;100.00
67099;BME280;54288;53.046;5.668;2024-02-28T07:13:09;102105.97;;;7.80;100.00
67099;BME280;54288;53.046;5.668;2024-02-28T07:15:36;102092.91;;;7.78;100.00
67099;BME280;54288;53.046;5.668;2024-02-28T07:18:11;102101.59;;;7.77;100.00
67099;BME280;54288;53.046;5.668;2024-02-28T07:20:38;102103.34;;;7.81;100.00
67099;BME280;54288;53.046;5.668;2024-02-28T07:23:04;102102.50;;;7.82;100.00
67099;BME280;54288;53.046;5.668;2024-02-28T07:25:30;102098.19;;;7.84;100.00
67099;BME280;54288;53.046;5.668;2024-02-28T07:27:58;102107.75;;;7.85;100.00
67099;BME280;54288;53.046;5.668;2024-02-28T07:30:28;102112.06;;;7.85;100.00
67099;BME280;54288;53.046;5.668;2024-02-28T07:32:54;102100.72;;;7.81;100.00
67099;BME280;54288;53.046;5.668;2024-02-28T07:35:20;102096.31;;;7.74;100.00
67099;BME280;54288;53.046;5.668;2024-02-28T07:37:47;102095.41;;;7.68;100.00
67099;BME280;54288;53.046;5.668;2024-02-28T07:40:14;102105.00;;;7.73;100.00
67099;BME280;54288;53.046;5.668;2024-02-28T07:42:40;102104.19;;;7.79;100.00
67099;BME280;54288;53.046;5.668;2024-02-28T07:45:06;102118.97;;;7.78;100.00
67099;BME280;54288;53.046;5.668;2024-02-28T07:47:34;102132.03;;;7.81;100.00
67099;BME280;54288;53.046;5.668;2024-02-28T07:50:01;102131.22;;;7.85;100.00
67099;BME280;54288;53.046;5.668;2024-02-28T07:52:27;102136.47;;;7.90;100.00
67099;BME280;54288;53.046;5.668;2024-02-28T07:54:53;102133.88;;;7.88;100.00
67099;BME280;54288;53.046;5.668;2024-02-28T07:57:19;102136.47;;;7.90;100.00
67099;BME280;54288;53.046;5.668;2024-02-28T07:59:45;102128.72;;;7.94;100.00
67099;BME280;54288;53.046;5.668;2024-02-28T08:02:11;102119.97;;;7.92;100.00
67099;BME280;54288;53.046;5.668;2024-02-28T08:04:39;102126.97;;;7.95;100.00
67099;BME280;54288;53.046;5.668;2024-02-28T08:07:05;102122.69;;;8.01;100.00
67099;BME280;54288;53.046;5.668;2024-02-28T08:09:31;102136.69;;;8.09;100.00
67099;BME280;54288;53.046;5.668;2024-02-28T08:11:58;102136.59;;;8.00;100.00
67099;BME280;54288;53.046;5.668;2024-02-28T08:14:24;102134.88;;;8.02;100.00
67099;BME280;54288;53.046;5.668;2024-02-28T08:16:50;102148.84;;;8.07;100.00
67099;BME280;54288;53.046;5.668;2024-02-28T08:19:17;102136.69;;;8.11;100.00
67099;BME280;54288;53.046;5.668;2024-02-28T08:21:43;102142.81;;;8.14;100.00
67099;BME280;54288;53.046;5.668;2024-02-28T08:24:10;102156.88;;;8.22;100.00
67099;BME280;54288;53.046;5.668;2024-02-28T08:26:36;102163.81;;;8.22;100.00
67099;BME280;54288;53.046;5.668;2024-02-28T08:29:02;102169.94;;;8.25;100.00
67099;BME280;54288;53.046;5.668;2024-02-28T08:31:28;102155.19;;;8.29;100.00
67099;BME280;54288;53.046;5.668;2024-02-28T08:33:54;102167.44;;;8.37;100.00
67099;BME280;54288;53.046;5.668;2024-02-28T08:36:21;102157.91;;;8.39;100.00
67099;BME280;54288;53.046;5.668;2024-02-28T08:38:47;102159.66;;;8.43;100.00
67099;BME280;54288;53.046;5.668;2024-02-28T08:41:13;102176.28;;;8.53;100.00
67099;BME280;54288;53.046;5.668;2024-02-28T08:43:40;102172.81;;;8.55;100.00
67099;BME280;54288;53.046;5.668;2024-02-28T08:46:06;102180.66;;;8.55;100.00
67099;BME280;54288;53.046;5.668;2024-02-28T08:48:33;102174.66;;;8.62;100.00
67099;BME280;54288;53.046;5.668;2024-02-28T08:50:59;102188.66;;;8.72;100.00
67099;BME280;54288;53.046;5.668;2024-02-28T08:53:26;102184.28;;;8.72;100.00
67099;BME280;54288;53.046;5.668;2024-02-28T08:55:52;102187.66;;;8.56;100.00
67099;BME280;54288;53.046;5.668;2024-02-28T08:58:18;102188.50;;;8.55;100.00
67099;BME280;54288;53.046;5.668;2024-02-28T09:00:44;102195.50;;;8.59;100.00
67099;BME280;54288;53.046;5.668;2024-02-28T09:03:09;102195.53;;;8.61;100.00
67099;BME280;54288;53.046;5.668;2024-02-28T09:05:35;102193.78;;;8.63;100.00
67099;BME280;54288;53.046;5.668;2024-02-28T09:08:01;102190.31;;;8.62;100.00
67099;BME280;54288;53.046;5.668;2024-02-28T09:10:28;102184.22;;;8.63;100.00
67099;BME280;54288;53.046;5.668;2024-02-28T09:12:56;102191.28;;;8.73;100.00
67099;BME280;54288;53.046;5.668;2024-02-28T09:15:22;102180.78;;;8.69;100.00
67099;BME280;54288;53.046;5.668;2024-02-28T09:17:48;102182.53;;;8.68;100.00
67099;BME280;54288;53.046;5.668;2024-02-28T09:20:14;102191.28;;;8.76;100.00
67099;BME280;54288;53.046;5.668;2024-02-28T09:22:40;102179.91;;;8.67;100.00
67099;BME280;54288;53.046;5.668;2024-02-28T09:25:07;102181.69;;;8.71;100.00
67099;BME280;54288;53.046;5.668;2024-02-28T09:27:35;102172.97;;;8.70;100.00
67099;BME280;54288;53.046;5.668;2024-02-28T09:30:02;102173.00;;;8.76;100.00
67099;BME280;54288;53.046;5.668;2024-02-28T09:32:28;102185.25;;;8.83;100.00
67099;BME280;54288;53.046;5.668;2024-02-28T09:34:54;102174.75;;;8.77;100.00
67099;BME280;54288;53.046;5.668;2024-02-28T09:37:20;102173.94;;;8.81;100.00
67099;BME280;54288;53.046;5.668;2024-02-28T09:39:48;102167.06;;;8.94;100.00
67099;BME280;54288;53.046;5.668;2024-02-28T09:42:14;102180.13;;;8.97;100.00
67099;BME280;54288;53.046;5.668;2024-02-28T09:44:42;102189.78;;;9.02;100.00
67099;BME280;54288;53.046;5.668;2024-02-28T09:47:09;102193.28;;;9.07;100.00
67099;BME280;54288;53.046;5.668;2024-02-28T09:49:37;102187.19;;;9.10;100.00
67099;BME280;54288;53.046;5.668;2024-02-28T09:52:03;102194.22;;;9.20;100.00
67099;BME280;54288;53.046;5.668;2024-02-28T09:54:30;102187.31;;;9.26;100.00
67099;BME280;54288;53.046;5.668;2024-02-28T09:56:56;102184.75;;;9.32;100.00
67099;BME280;54288;53.046;5.668;2024-02-28T09:59:24;102189.13;;;9.35;100.00
67099;BME280;54288;53.046;5.668;2024-02-28T10:01:57;102183.88;;;9.35;100.00
67099;BME280;54288;53.046;5.668;2024-02-28T10:04:26;102194.34;;;9.36;100.00
67099;BME280;54288;53.046;5.668;2024-02-28T10:06:53;102208.34;;;9.46;100.00
67099;BME280;54288;53.046;5.668;2024-02-28T10:09:19;102199.59;;;9.39;100.00
67099;BME280;54288;53.046;5.668;2024-02-28T10:11:45;102200.41;;;9.35;100.00
67099;BME280;54288;53.046;5.668;2024-02-28T10:14:18;102199.59;;;9.44;100.00
67099;BME280;54288;53.046;5.668;2024-02-28T10:16:45;102197.94;;;9.53;100.00
67099;BME280;54288;53.046;5.668;2024-02-28T10:19:12;102203.13;;;9.50;100.00
67099;BME280;54288;53.046;5.668;2024-02-28T10:21:39;102197.91;;;9.50;100.00
67099;BME280;54288;53.046;5.668;2024-02-28T10:24:08;102195.28;;;9.50;100.00
67099;BME280;54288;53.046;5.668;2024-02-28T10:26:45;102195.28;;;9.50;100.00
67099;BME280;54288;53.046;5.668;2024-02-28T10:29:14;102190.94;;;9.49;100.00
67099;BME280;54288;53.046;5.668;2024-02-28T10:31:41;102186.63;;;9.56;100.00
67099;BME280;54288;53.046;5.668;2024-02-28T10:34:12;102195.34;;;9.62;100.00
67099;BME280;54288;53.046;5.668;2024-02-28T10:36:44;102186.56;;;9.51;100.00
67099;BME280;54288;53.046;5.668;2024-02-28T10:39:12;102187.44;;;9.49;100.00
67099;BME280;54288;53.046;5.668;2024-02-28T10:41:38;102190.94;;;9.45;100.00
67099;BME280;54288;53.046;5.668;2024-02-28T10:44:09;102190.94;;;9.52;100.00
67099;BME280;54288;53.046;5.668;2024-02-28T10:46:39;102185.72;;;9.54;100.00
67099;BME280;54288;53.046;5.668;2024-02-28T10:49:06;102199.66;;;9.48;100.00
67099;BME280;54288;53.046;5.668;2024-02-28T10:51:36;102188.34;;;9.51;100.00
67099;BME280;54288;53.046;5.668;2024-02-28T10:54:08;102192.72;;;9.58;100.00
67099;BME280;54288;53.046;5.668;2024-02-28T10:56:41;102189.25;;;9.60;100.00
67099;BME280;54288;53.046;5.668;2024-02-28T10:59:09;102185.75;;;9.61;100.00
67099;BME280;54288;53.046;5.668;2024-02-28T11:01:48;102190.19;;;9.71;100.00
67099;BME280;54288;53.046;5.668;2024-02-28T11:04:17;102184.06;;;9.66;100.00
67099;BME280;54288;53.046;5.668;2024-02-28T11:06:55;102184.03;;;9.65;100.00
67099;BME280;54288;53.046;5.668;2024-02-28T11:09:30;102182.31;;;9.74;100.00
67099;BME280;54288;53.046;5.668;2024-02-28T11:12:07;102178.03;;;9.82;100.00
67099;BME280;54288;53.046;5.668;2024-02-28T11:23:10;102183.28;;;9.93;100.00
67099;BME280;54288;53.046;5.668;2024-02-28T11:29:03;102185.91;;;9.94;100.00
67099;BME280;54288;53.046;5.668;2024-02-28T11:31:36;102187.72;;;10.04;100.00
67099;BME280;54288;53.046;5.668;2024-02-28T16:21:25;101939.03;;;10.31;100.00
67099;BME280;54288;53.046;5.668;2024-02-28T17:16:59;101933.84;;;9.89;100.00
67099;BME280;54288;53.046;5.668;2024-02-28T17:19:25;101924.25;;;9.85;100.00
67099;BME280;54288;53.046;5.668;2024-02-28T17:24:31;101924.25;;;9.85;100.00
67099;BME280;54288;53.046;5.668;2024-02-28T17:27:00;101919.00;;;9.87;100.00
67099;BME280;54288;53.046;5.668;2024-02-28T17:29:39;101913.78;;;9.82;100.00
67099;BME280;54288;53.046;5.668;2024-02-28T18:40:45;101874.56;;;9.70;100.00
67099;BME280;54288;53.046;5.668;2024-02-28T19:10:31;101844.94;;;9.53;100.00
67099;BME280;54288;53.046;5.668;2024-02-28T19:17:30;101836.22;;;9.48;100.00
67099;BME280;54288;53.046;5.668;2024-02-28T19:38:56;101819.66;;;9.45;100.00
67099;BME280;54288;53.046;5.668;2024-02-28T19:41:31;101824.00;;;9.41;100.00
67099;BME280;54288;53.046;5.668;2024-02-28T19:44:17;101824.88;;;9.42;100.00
67099;BME280;54288;53.046;5.668;2024-02-28T19:46:44;101824.88;;;9.48;100.00
67099;BME280;54288;53.046;5.668;2024-02-28T19:57:37;101823.13;;;9.45;100.00
67099;BME280;54288;53.046;5.668;2024-02-28T20:00:35;101830.97;;;9.51;100.00
67099;BME280;54288;53.046;5.668;2024-02-28T20:11:24;101803.09;;;9.59;100.00
67099;BME280;54288;53.046;5.668;2024-02-28T20:14:12;101796.13;;;9.55;100.00
67099;BME280;54288;53.046;5.668;2024-02-28T20:17:27;101782.19;;;9.47;100.00
67099;BME280;54288;53.046;5.668;2024-02-28T20:20:02;101780.44;;;9.49;100.00
67099;BME280;54288;53.046;5.668;2024-02-28T20:25:55;101782.19;;;9.47;100.00
67099;BME280;54288;53.046;5.668;2024-02-28T20:45:57;101772.59;;;9.48;100.00
67099;BME280;54288;53.046;5.668;2024-02-28T20:48:45;101766.50;;;9.47;100.00
67099;BME280;54288;53.046;5.668;2024-02-28T21:38:48;101704.63;;;9.48;100.00
67099;BME280;54288;53.046;5.668;2024-02-28T21:41:39;101681.09;;;9.43;100.00
67099;BME280;54288;53.046;5.668;2024-02-28T21:44:06;101676.72;;;9.44;100.00
67099;BME280;54288;53.046;5.668;2024-02-28T21:50:07;101675.88;;;9.43;100.00
67099;BME280;54288;53.046;5.668;2024-02-28T21:53:22;101670.63;;;9.40;100.00
67099;BME280;54288;53.046;5.668;2024-02-28T21:58:36;101658.50;;;9.29;100.00
67099;BME280;54288;53.046;5.668;2024-02-28T22:01:18;101659.38;;;9.28;100.00
67099;BME280;54288;53.046;5.668;2024-02-28T22:03:59;101656.75;;;9.26;100.00
67099;BME280;54288;53.046;5.668;2024-02-28T22:06:27;101656.72;;;9.32;100.00
67099;BME280;54288;53.046;5.668;2024-02-28T22:11:39;101646.28;;;9.29;100.00
67099;BME280;54288;53.046;5.668;2024-02-28T22:14:15;101645.41;;;9.30;100.00
67099;BME280;54288;53.046;5.668;2024-02-28T22:16:49;101638.41;;;9.37;100.00
67099;BME280;54288;53.046;5.668;2024-02-28T22:19:43;101647.13;;;9.45;100.00
67099;BME280;54288;53.046;5.668;2024-02-28T22:25:33;101626.19;;;9.40;100.00
67099;BME280;54288;53.046;5.668;2024-02-28T22:28:29;101621.00;;;9.39;100.00
67099;BME280;54288;53.046;5.668;2024-02-28T22:30:55;101614.88;;;9.38;100.00
67099;BME280;54288;53.046;5.668;2024-02-28T22:33:27;101618.38;;;9.43;100.00
67099;BME280;54288;53.046;5.668;2024-02-28T22:35:53;101610.53;;;9.39;100.00
67099;BME280;54288;53.046;5.668;2024-02-28T22:38:21;101609.66;;;9.46;100.00
67099;BME280;54288;53.046;5.668;2024-02-28T22:40:47;101605.28;;;9.40;100.00
67099;BME280;54288;53.046;5.668;2024-02-28T22:43:15;101598.31;;;9.39;100.00
67099;BME280;54288;53.046;5.668;2024-02-28T22:45:45;101608.78;;;9.38;100.00
67099;BME280;54288;53.046;5.668;2024-02-28T22:48:15;101606.16;;;9.45;100.00
67099;BME280;54288;53.046;5.668;2024-02-28T22:50:49;101593.06;;;9.44;100.00
67099;BME280;54288;53.046;5.668;2024-02-28T22:53:16;101605.28;;;9.45;100.00
67099;BME280;54288;53.046;5.668;2024-02-28T22:55:42;101596.59;;;9.38;100.00
67099;BME280;54288;53.046;5.668;2024-02-28T22:58:11;101598.34;;;9.33;100.00
67099;BME280;54288;53.046;5.668;2024-02-28T23:00:38;101592.25;;;9.27;100.00
67099;BME280;54288;53.046;5.668;2024-02-28T23:03:08;101591.41;;;9.23;100.00
67099;BME280;54288;53.046;5.668;2024-02-28T23:05:34;101576.66;;;9.10;100.00
67099;BME280;54288;53.046;5.668;2024-02-28T23:08:01;101569.69;;;9.09;100.00
67099;BME280;54288;53.046;5.668;2024-02-28T23:10:28;101565.34;;;9.01;100.00
67099;BME280;54288;53.046;5.668;2024-02-28T23:12:55;101554.03;;;9.05;100.00
67099;BME280;54288;53.046;5.668;2024-02-28T23:15:22;101552.28;;;9.08;100.00
67099;BME280;54288;53.046;5.668;2024-02-28T23:17:49;101557.53;;;9.02;100.00
67099;BME280;54288;53.046;5.668;2024-02-28T23:20:24;101554.88;;;9.07;100.00
67099;BME280;54288;53.046;5.668;2024-02-28T23:22:51;101540.09;;;8.97;100.00
67099;BME280;54288;53.046;5.668;2024-02-28T23:25:19;101549.66;;;9.04;100.00
67099;BME280;54288;53.046;5.668;2024-02-28T23:27:47;101547.94;;;8.95;100.00
67099;BME280;54288;53.046;5.668;2024-02-28T23:30:16;101546.22;;;8.97;100.00
67099;BME280;54288;53.046;5.668;2024-02-28T23:32:45;101547.09;;;8.92;100.00
67099;BME280;54288;53.046;5.668;2024-02-28T23:35:21;101548.84;;;8.99;100.00
67099;BME280;54288;53.046;5.668;2024-02-28T23:37:47;101527.06;;;8.91;100.00
67099;BME280;54288;53.046;5.668;2024-02-28T23:40:13;101534.91;;;8.94;100.00
67099;BME280;54288;53.046;5.668;2024-02-28T23:42:41;101530.53;;;8.94;100.00
67099;BME280;54288;53.046;5.668;2024-02-28T23:45:07;101532.31;;;8.94;100.00
67099;BME280;54288;53.046;5.668;2024-02-28T23:47:34;101527.94;;;8.94;100.00
67099;BME280;54288;53.046;5.668;2024-02-28T23:50:00;101520.13;;;8.90;100.00
67099;BME280;54288;53.046;5.668;2024-02-28T23:52:26;101519.25;;;8.92;100.00
67099;BME280;54288;53.046;5.668;2024-02-28T23:54:52;101518.34;;;8.98;100.00
67099;BME280;54288;53.046;5.668;2024-02-28T23:57:18;101513.16;;;8.89;100.00
67099;BME280;54288;53.046;5.668;2024-02-28T23:59:44;101498.38;;;8.86;100.00
